Time;durP1;ratioP1;P1;durP2;ratioP2;P2;SDS_P1;SDS_P2;PMS_P1;PMS_P2;Temp;Humidity;BMP_temperature;BMP_pressure;BME280_temperature;BME280_humidity;BME280_pressure;Samples;Min_cycle;Max_cycle;Signal;HPM_P1;HPM_P2
2023/04/29 00:01:47;;;;;;;11.90;6.60;;;;;;;8.15;71.99;100162.00;105161;1263;72544;-61
2023/04/29 00:04:16;;;;;;;13.10;6.80;;;;;;;8.17;71.77;100159.86;105219;1270;69137;-61
2023/04/29 00:06:44;;;;;;;12.60;7.20;;;;;;;8.18;72.11;100160.02;105221;1260;69349;-61
2023/04/29 00:09:13;;;;;;;9.60;6.70;;;;;;;8.19;72.15;100159.80;105202;1260;75117;-61
2023/04/29 00:11:41;;;;;;;9.30;6.40;;;;;;;8.19;72.16;100157.36;105249;1260;83420;-61
2023/04/29 00:14:09;;;;;;;10.40;6.70;;;;;;;8.21;72.47;100163.75;105151;1260;72197;-61
2023/04/29 00:16:37;;;;;;;12.70;6.50;;;;;;;8.24;72.42;100162.09;105160;1260;69151;-62
2023/04/29 00:19:05;;;;;;;11.90;7.00;;;;;;;8.26;72.40;100159.60;105223;1259;69176;-61
2023/04/29 00:21:34;;;;;;;14.20;7.10;;;;;;;8.29;72.38;100158.80;105200;1258;73892;-61
2023/04/29 00:24:02;;;;;;;9.90;6.80;;;;;;;8.34;72.79;100158.27;105261;1260;83103;-59
2023/04/29 00:26:31;;;;;;;12.10;7.70;;;;;;;8.37;72.69;100154.88;105197;1260;73684;-59
2023/04/29 00:28:59;;;;;;;12.80;7.30;;;;;;;8.39;72.56;100153.27;105207;1262;69173;-60
2023/04/29 00:31:28;;;;;;;13.50;7.20;;;;;;;8.42;73.17;100145.88;105148;1263;69248;-59
2023/04/29 00:33:56;;;;;;;10.40;7.40;;;;;;;8.51;72.78;100141.41;105204;1261;75267;-60
2023/04/29 00:36:25;;;;;;;10.00;6.60;;;;;;;8.59;73.06;100142.02;105232;1261;83367;-59
2023/04/29 00:38:53;;;;;;;11.60;7.70;;;;;;;8.65;73.02;100143.73;105244;1262;72665;-59
2023/04/29 00:41:21;;;;;;;12.00;8.00;;;;;;;8.70;72.92;100144.42;105146;1260;69217;-59
2023/04/29 00:43:49;;;;;;;14.00;8.00;;;;;;;8.79;72.76;100142.23;105060;1258;69102;-59
2023/04/29 00:46:17;;;;;;;12.80;8.60;;;;;;;8.88;72.79;100140.36;105042;1257;73862;-59
2023/04/29 00:48:46;;;;;;;12.50;7.90;;;;;;;9.01;72.74;100136.77;105029;1257;82506;-59
2023/04/29 00:51:15;;;;;;;14.40;8.00;;;;;;;9.13;72.65;100137.00;105162;1263;72780;-59
2023/04/29 00:53:44;;;;;;;13.70;8.10;;;;;;;9.24;72.41;100138.57;105088;1257;69056;-59
2023/04/29 00:56:16;;;;;;;12.50;8.10;;;;;;;9.33;72.16;100137.38;105231;1258;69005;-59
2023/04/29 00:58:48;;;;;;;11.90;7.90;;;;;;;9.40;71.89;100136.95;105123;1264;74003;-59
2023/04/29 01:01:20;;;;;;;12.90;8.00;;;;;;;9.45;71.90;100136.56;105061;1262;83515;-59
2023/04/29 01:03:50;;;;;;;11.20;8.10;;;;;;;9.50;71.83;100134.16;105181;1270;74027;-59
2023/04/29 01:06:24;;;;;;;11.10;7.80;;;;;;;9.52;71.60;100132.66;105250;1260;69710;-59
2023/04/29 01:09:30;;;;;;;13.00;8.10;;;;;;;9.54;71.51;100136.10;105078;1262;69221;-59
2023/04/29 01:12:05;;;;;;;13.20;7.70;;;;;;;9.55;71.45;100140.75;105191;1260;75141;-59
2023/04/29 01:14:35;;;;;;;12.00;7.50;;;;;;;9.57;71.31;100139.64;105018;1257;83501;-58
2023/04/29 01:17:10;;;;;;;9.80;7.60;;;;;;;9.58;71.34;100135.92;105065;1267;75113;-59
2023/04/29 01:19:52;;;;;;;11.60;7.30;;;;;;;9.58;71.26;100130.85;105127;1263;69103;-59
2023/04/29 01:22:22;;;;;;;13.70;7.20;;;;;;;9.58;71.41;100127.37;105070;1262;69269;-59
2023/04/29 01:24:50;;;;;;;12.80;7.70;;;;;;;9.59;71.43;100130.15;105064;1258;74832;-59
2023/04/29 01:27:28;;;;;;;11.10;6.80;;;;;;;9.57;71.26;100131.61;105124;1260;83594;-59
2023/04/29 01:30:25;;;;;;;12.90;7.20;;;;;;;9.58;71.38;100132.44;105175;1270;73547;-59
2023/04/29 01:33:03;;;;;;;15.40;7.30;;;;;;;9.61;71.39;100128.67;105207;1261;69063;-59
2023/04/29 01:35:40;;;;;;;11.80;8.00;;;;;;;9.64;71.55;100125.61;105210;1260;69157;-59
2023/04/29 01:38:12;;;;;;;11.10;7.60;;;;;;;9.66;71.55;100125.70;105241;1261;74945;-58
2023/04/29 01:41:01;;;;;;;11.90;7.90;;;;;;;9.66;71.61;100129.70;105035;1261;83849;-59
2023/04/29 01:43:32;;;;;;;12.20;8.10;;;;;;;9.66;71.49;100131.98;105201;1257;73015;-58
2023/04/29 01:46:10;;;;;;;13.20;8.00;;;;;;;9.67;71.56;100128.27;105126;1263;69202;-53
2023/04/29 01:48:39;;;;;;;12.10;8.30;;;;;;;9.70;71.64;100123.97;105154;1262;69236;-58
2023/04/29 01:51:07;;;;;;;10.40;7.40;;;;;;;9.73;71.64;100125.79;105027;1258;73999;-58
2023/04/29 01:53:36;;;;;;;10.50;7.60;;;;;;;9.77;71.61;100121.60;105199;1260;82329;-58
2023/04/29 01:56:05;;;;;;;10.00;7.40;;;;;;;9.83;71.57;100119.82;105039;1256;74129;-58
2023/04/29 01:58:59;;;;;;;12.10;7.60;;;;;;;9.87;71.56;100116.68;105124;1261;69154;-58
2023/04/29 02:01:30;;;;;;;11.40;7.40;;;;;;;9.90;71.53;100116.20;105235;1260;69153;-58
2023/04/29 02:03:59;;;;;;;12.10;7.10;;;;;;;9.93;71.47;100111.38;105186;1262;75217;-58
2023/04/29 02:06:27;;;;;;;11.50;7.40;;;;;;;9.97;71.51;100112.11;105229;1261;83366;-58
2023/04/29 02:09:00;;;;;;;12.70;7.50;;;;;;;10.00;71.63;100110.77;105148;1257;72611;-58
2023/04/29 02:11:28;;;;;;;12.40;7.50;;;;;;;10.02;71.67;100108.25;105196;1257;69177;-58
2023/04/29 02:13:57;;;;;;;9.80;7.20;;;;;;;10.01;71.51;100107.41;105274;1260;69189;-59
2023/04/29 02:16:25;;;;;;;10.10;7.70;;;;;;;9.99;71.38;100104.52;105248;1257;74627;-59
2023/04/29 02:18:57;;;;;;;10.30;7.50;;;;;;;9.97;71.48;100105.45;105235;1258;83408;-59
2023/04/29 02:21:26;;;;;;;11.80;8.30;;;;;;;9.98;71.40;100109.29;105044;1258;72741;-58
2023/04/29 02:23:54;;;;;;;12.20;8.60;;;;;;;9.97;71.40;100109.13;105272;1257;69233;-58
2023/04/29 02:26:24;;;;;;;12.80;9.00;;;;;;;9.96;71.35;100110.77;105264;1261;69135;-60
2023/04/29 02:28:56;;;;;;;14.10;8.90;;;;;;;9.94;71.37;100110.15;105062;1264;74610;-60
2023/04/29 02:31:24;;;;;;;15.00;8.20;;;;;;;9.91;71.42;100110.58;105229;1256;83446;-60
2023/04/29 02:33:54;;;;;;;13.20;8.90;;;;;;;9.90;71.50;100105.74;105092;1264;72741;-60
2023/04/29 02:36:23;;;;;;;14.30;8.20;;;;;;;9.89;71.53;100104.59;105254;1259;69154;-61
2023/04/29 02:38:54;;;;;;;12.50;8.70;;;;;;;9.88;71.62;100103.90;105231;1257;69127;-63
2023/04/29 02:41:24;;;;;;;12.50;8.00;;;;;;;9.89;71.67;100101.61;105262;1259;75007;-62
2023/04/29 02:43:53;;;;;;;11.20;7.50;;;;;;;9.89;71.73;100100.73;105294;1258;82454;-61
2023/04/29 02:46:21;;;;;;;11.60;8.00;;;;;;;9.92;71.80;100099.38;105169;1260;73797;-61
2023/04/29 02:48:49;;;;;;;13.00;8.20;;;;;;;9.93;71.73;100100.91;105263;1257;69137;-60
2023/04/29 02:51:18;;;;;;;12.70;8.10;;;;;;;9.94;71.71;100102.09;105307;1261;69183;-61
2023/04/29 02:53:47;;;;;;;11.70;8.20;;;;;;;9.95;71.85;100102.58;105294;1263;74898;-61
2023/04/29 02:56:15;;;;;;;15.50;8.80;;;;;;;9.98;71.83;100101.05;105200;1258;82513;-61
2023/04/29 02:58:43;;;;;;;15.00;8.30;;;;;;;9.99;71.81;100096.31;105198;1258;72386;-61
2023/04/29 03:01:11;;;;;;;14.20;9.70;;;;;;;10.01;71.87;100095.21;105168;1258;69080;-61
2023/04/29 03:03:40;;;;;;;13.30;8.70;;;;;;;10.02;71.76;100092.19;105291;1261;69305;-58
2023/04/29 03:06:08;;;;;;;17.70;9.00;;;;;;;10.03;71.70;100085.87;105222;1258;73606;-59
2023/04/29 03:08:37;;;;;;;12.40;8.80;;;;;;;10.04;71.71;100085.47;105272;1260;82548;-61
2023/04/29 03:11:05;;;;;;;14.00;8.80;;;;;;;10.06;71.70;100081.04;105064;1263;74069;-61
2023/04/29 03:13:34;;;;;;;16.40;8.60;;;;;;;10.06;71.68;100076.86;105203;1260;69084;-61
2023/04/29 03:16:02;;;;;;;15.60;8.30;;;;;;;10.07;71.78;100073.15;105213;1257;69065;-61
2023/04/29 03:18:31;;;;;;;11.20;8.20;;;;;;;10.09;71.87;100073.95;105056;1257;75065;-61
2023/04/29 03:20:59;;;;;;;11.20;8.20;;;;;;;10.09;72.04;100066.95;105142;1262;81664;-61
2023/04/29 03:23:27;;;;;;;13.70;7.90;;;;;;;10.08;72.26;100057.55;105182;1261;72741;-61
2023/04/29 03:25:56;;;;;;;12.40;8.00;;;;;;;10.06;72.18;100052.95;105154;1264;69198;-61
2023/04/29 03:28:26;;;;;;;10.90;8.10;;;;;;;10.04;72.28;100055.45;105228;1259;69126;-61
2023/04/29 03:30:55;;;;;;;13.60;8.10;;;;;;;10.02;72.27;100068.44;105274;1260;73938;-58
2023/04/29 03:33:24;;;;;;;10.00;8.20;;;;;;;9.99;72.21;100073.27;105098;1257;83494;-59
2023/04/29 03:35:52;;;;;;;15.80;8.70;;;;;;;9.95;72.21;100081.12;105117;1261;73889;-59
2023/04/29 03:38:24;;;;;;;10.30;8.90;;;;;;;9.92;72.22;100079.88;105196;1260;69255;-58
2023/04/29 03:40:53;;;;;;;10.80;8.20;;;;;;;9.90;72.31;100081.66;105097;1264;69174;-58
2023/04/29 03:43:22;;;;;;;14.50;8.40;;;;;;;9.91;72.36;100083.04;105234;1258;74848;-59
2023/04/29 03:45:50;;;;;;;13.90;8.10;;;;;;;9.91;72.42;100084.27;105244;1258;83557;-59
2023/04/29 03:48:20;;;;;;;12.30;8.40;;;;;;;9.92;72.39;100085.27;105227;1260;73982;-59
2023/04/29 03:50:48;;;;;;;10.90;7.90;;;;;;;9.94;72.38;100087.96;105170;1257;69145;-59
2023/04/29 03:53:17;;;;;;;11.10;7.00;;;;;;;9.96;72.40;100087.52;105088;1264;69139;-59
2023/04/29 03:55:47;;;;;;;10.40;7.20;;;;;;;10.00;72.39;100091.92;105256;1259;74903;-59
2023/04/29 03:58:16;;;;;;;;;;;;;;;10.02;72.45;100091.83;105213;1257;82623;-59
2023/04/29 04:00:44;;;;;;;14.80;7.40;;;;;;;10.05;72.43;100094.52;105207;1260;73769;-59
2023/04/29 04:03:16;;;;;;;13.30;7.80;;;;;;;10.08;72.49;100097.20;105034;1263;69206;-59
2023/04/29 04:05:44;;;;;;;14.80;8.00;;;;;;;10.12;72.50;100098.08;105077;1260;69215;-59
2023/04/29 04:08:14;;;;;;;12.80;7.70;;;;;;;10.15;72.40;100098.98;105266;1257;75068;-60
2023/04/29 04:10:51;;;;;;;8.60;7.60;;;;;;;10.17;72.39;100092.63;105254;1260;83121;-60
2023/04/29 04:13:29;;;;;;;15.60;7.80;;;;;;;10.20;72.50;100087.28;105229;1260;73710;-59
2023/04/29 04:15:58;;;;;;;13.70;7.90;;;;;;;10.22;72.56;100092.77;105223;1260;69279;-60
2023/04/29 04:18:26;;;;;;;16.40;8.60;;;;;;;10.24;72.54;100089.38;105221;1257;70421;-59
2023/04/29 04:20:54;;;;;;;14.90;8.10;;;;;;;10.25;72.50;100094.04;105114;1258;74756;-60
2023/04/29 04:23:24;;;;;;;11.00;7.70;;;;;;;10.27;72.43;100094.69;105163;1261;83711;-60
2023/04/29 04:25:53;;;;;;;12.30;7.30;;;;;;;10.31;72.37;100090.54;105240;1258;73946;-60
2023/04/29 04:28:45;;;;;;;9.50;7.40;;;;;;;10.33;72.39;100086.09;104934;1268;69221;-60
2023/04/29 04:31:19;;;;;;;9.20;6.70;;;;;;;10.34;72.46;100087.30;105216;1257;69028;-59
2023/04/29 04:33:48;;;;;;;11.10;7.00;;;;;;;10.34;72.42;100089.02;105093;1258;73827;-58
2023/04/29 04:36:16;;;;;;;10.90;6.70;;;;;;;10.35;72.47;100087.22;105191;1260;83613;-59
2023/04/29 04:38:45;;;;;;;12.70;6.90;;;;;;;10.37;72.45;100086.60;105187;1260;73768;-59
2023/04/29 04:41:13;;;;;;;13.60;6.80;;;;;;;10.39;72.46;100083.71;105220;1260;69232;-59
2023/04/29 04:43:44;;;;;;;;;;;;;;;10.42;72.52;100082.94;105210;1258;69190;-59
2023/04/29 04:46:31;;;;;;;15.20;7.30;;;;;;;10.45;72.61;100082.77;105205;1260;74772;-58
2023/04/29 04:49:06;;;;;;;9.60;6.80;;;;;;;10.49;72.65;100086.27;105186;1257;83618;-59
2023/04/29 04:51:35;;;;;;;9.90;6.60;;;;;;;10.50;72.57;100081.53;105189;1256;73550;-59
2023/04/29 04:54:03;;;;;;;11.40;6.80;;;;;;;10.52;72.54;100082.88;105108;1262;69355;-59
2023/04/29 04:56:33;;;;;;;12.20;7.20;;;;;;;10.55;72.61;100087.11;105093;1257;69203;-59
2023/04/29 04:59:02;;;;;;;11.90;7.70;;;;;;;10.57;72.68;100089.11;105156;1260;75405;-59
2023/04/29 05:01:30;;;;;;;11.60;7.70;;;;;;;10.58;72.69;100085.21;105117;1257;84036;-59
2023/04/29 05:03:59;;;;;;;11.90;7.80;;;;;;;10.59;72.73;100077.52;105270;1260;72047;-59
2023/04/29 05:06:28;;;;;;;10.70;7.10;;;;;;;10.60;72.57;100070.45;105083;1262;69210;-58
2023/04/29 05:08:56;;;;;;;9.10;6.70;;;;;;;10.64;72.64;100063.83;105233;1257;69123;-59
2023/04/29 05:11:25;;;;;;;11.00;7.50;;;;;;;10.67;72.62;100069.80;105211;1260;75108;-59
2023/04/29 05:14:13;;;;;;;12.60;7.50;;;;;;;10.70;72.52;100064.98;105150;1257;83374;-58
2023/04/29 05:16:43;;;;;;;9.60;6.50;;;;;;;10.73;72.50;100067.45;105100;1260;73951;-59
2023/04/29 05:19:12;;;;;;;11.60;7.40;;;;;;;10.79;72.40;100076.13;105056;1258;69263;-59
2023/04/29 05:21:40;;;;;;;10.20;6.50;;;;;;;10.82;72.36;100079.65;105149;1263;69066;-59
2023/04/29 05:24:10;;;;;;;9.00;6.10;;;;;;;10.86;72.46;100084.38;105163;1260;75192;-58
2023/04/29 05:26:38;;;;;;;10.90;6.80;;;;;;;10.92;72.44;100079.06;105186;1256;83522;-59
2023/04/29 05:29:06;;;;;;;9.70;7.30;;;;;;;11.00;72.46;100081.70;105045;1261;73905;-58
2023/04/29 05:31:43;;;;;;;10.20;7.60;;;;;;;11.09;72.56;100082.14;105109;1256;69186;-58
2023/04/29 05:34:12;;;;;;;16.40;8.10;;;;;;;11.20;72.40;100084.14;105147;1257;69174;-59
2023/04/29 05:36:41;;;;;;;13.20;8.20;;;;;;;11.28;72.22;100084.79;105231;1259;74856;-59
2023/04/29 05:39:09;;;;;;;13.00;8.20;;;;;;;11.32;72.04;100086.39;105041;1257;83946;-59
2023/04/29 05:41:37;;;;;;;9.80;7.50;;;;;;;11.38;72.04;100088.21;105209;1257;72802;-59
2023/04/29 05:44:16;;;;;;;11.40;7.40;;;;;;;11.44;71.73;100089.00;105131;1257;69012;-59
2023/04/29 05:46:47;;;;;;;12.60;7.10;;;;;;;11.49;71.70;100091.38;105263;1257;69087;-59
2023/04/29 05:49:16;;;;;;;11.30;6.80;;;;;;;11.55;71.82;100093.17;105197;1260;75159;-59
2023/04/29 05:51:44;;;;;;;9.60;7.30;;;;;;;11.61;71.72;100090.48;105113;1260;83490;-59
2023/04/29 05:54:13;;;;;;;10.00;6.80;;;;;;;11.66;71.67;100090.77;105177;1260;72909;-59
2023/04/29 05:56:41;;;;;;;9.70;7.50;;;;;;;11.71;71.77;100097.03;105281;1257;69768;-59
2023/04/29 05:59:10;;;;;;;9.80;7.40;;;;;;;11.76;71.95;100105.88;105050;1257;69295;-59
2023/04/29 06:01:38;;;;;;;14.70;9.10;;;;;;;11.76;71.76;100114.63;105283;1260;73994;-59
2023/04/29 06:04:07;;;;;;;16.50;9.60;;;;;;;11.71;71.66;100117.84;105084;1262;83591;-59
2023/04/29 06:06:56;;;;;;;16.30;9.10;;;;;;;11.67;71.65;100117.87;104947;1257;73744;-58
2023/04/29 06:09:44;;;;;;;12.40;8.30;;;;;;;11.62;71.70;100118.41;105161;1260;69228;-59
2023/04/29 06:12:13;;;;;;;14.20;9.10;;;;;;;11.59;71.76;100121.01;105273;1256;69122;-59
2023/04/29 06:14:43;;;;;;;13.00;9.30;;;;;;;11.59;71.84;100124.69;105197;1261;75060;-60
2023/04/29 06:17:11;;;;;;;12.40;9.00;;;;;;;11.52;72.23;100124.15;105184;1256;81921;-60
2023/04/29 06:19:40;;;;;;;12.70;9.00;;;;;;;11.43;72.33;100125.59;105260;1256;72407;-59
2023/04/29 06:22:09;;;;;;;14.50;8.80;;;;;;;11.28;72.53;100125.57;105252;1261;69214;-59
2023/04/29 06:24:40;;;;;;;14.60;9.00;;;;;;;11.14;73.32;100125.98;105172;1257;69094;-58
2023/04/29 06:27:11;;;;;;;13.60;9.30;;;;;;;11.06;74.03;100126.52;105262;1260;75304;-61
2023/04/29 06:29:39;;;;;;;14.90;9.20;;;;;;;11.04;74.63;100125.92;105122;1262;83311;-61
2023/04/29 06:32:07;;;;;;;13.50;9.80;;;;;;;11.02;74.96;100122.34;105105;1258;72662;-61
2023/04/29 06:34:38;;;;;;;15.60;9.30;;;;;;;11.01;75.25;100121.34;105235;1257;69201;-59
2023/04/29 06:37:22;;;;;;;16.20;9.60;;;;;;;11.00;75.40;100119.78;105096;1257;69347;-60
2023/04/29 06:40:05;;;;;;;12.60;8.90;;;;;;;11.02;75.72;100115.33;105219;1260;74952;-60
2023/04/29 06:43:04;;;;;;;12.60;9.70;;;;;;;11.06;76.06;100109.39;105217;1257;83912;-61
2023/04/29 06:45:58;;;;;;;12.00;9.30;;;;;;;11.15;76.41;100105.51;105067;1257;73821;-61
2023/04/29 06:48:36;;;;;;;13.10;9.60;;;;;;;11.26;76.51;100101.34;105173;1257;69276;-60
2023/04/29 06:51:04;;;;;;;12.20;9.00;;;;;;;11.34;76.52;100098.18;105144;1257;69188;-61
2023/04/29 06:53:36;;;;;;;13.20;9.10;;;;;;;11.42;76.59;100098.71;105140;1261;74864;-61
2023/04/29 06:56:06;;;;;;;14.90;9.10;;;;;;;11.50;76.66;100097.80;105288;1256;83223;-60
2023/04/29 06:58:34;;;;;;;14.30;10.00;;;;;;;11.57;76.60;100098.17;105312;1257;72792;-61
2023/04/29 07:01:03;;;;;;;13.30;8.80;;;;;;;11.66;76.78;100096.92;105299;1260;69187;-59
2023/04/29 07:03:32;;;;;;;13.70;8.60;;;;;;;11.74;76.83;100091.79;105415;1256;69119;-59
2023/04/29 07:06:00;;;;;;;12.70;8.70;;;;;;;11.82;76.72;100095.78;105386;1256;74948;-59
2023/04/29 07:08:29;;;;;;;11.30;8.20;;;;;;;11.92;76.76;100100.61;105350;1256;83423;-59
2023/04/29 07:10:57;;;;;;;11.10;8.40;;;;;;;12.01;76.79;100102.98;105297;1259;73643;-59
2023/04/29 07:13:26;;;;;;;13.20;8.40;;;;;;;12.08;76.91;100104.42;105278;1257;69033;-60
2023/04/29 07:15:54;;;;;;;12.50;8.10;;;;;;;12.14;76.62;100109.73;105204;1257;69352;-59
2023/04/29 07:18:23;;;;;;;11.60;7.90;;;;;;;12.17;76.73;100107.63;105345;1260;74987;-61
2023/04/29 07:20:51;;;;;;;13.50;8.20;;;;;;;12.23;77.14;100108.23;105255;1259;83402;-60
2023/04/29 07:23:20;;;;;;;12.50;8.30;;;;;;;12.24;76.79;100108.86;105242;1256;71393;-61
2023/04/29 07:25:48;;;;;;;14.30;8.50;;;;;;;12.26;77.25;100103.33;105260;1256;69192;-61
2023/04/29 07:28:17;;;;;;;12.60;9.30;;;;;;;12.31;77.07;100102.61;105165;1257;69104;-61
2023/04/29 07:30:45;;;;;;;11.90;8.90;;;;;;;12.28;76.92;100099.77;105294;1256;75489;-61
2023/04/29 07:33:14;;;;;;;11.10;8.20;;;;;;;12.28;76.77;100101.35;105164;1257;81654;-62
2023/04/29 07:35:43;;;;;;;11.40;8.60;;;;;;;12.25;76.66;100107.61;105083;1262;71810;-62
2023/04/29 07:38:12;;;;;;;9.30;7.90;;;;;;;12.20;76.81;100110.46;105172;1261;69218;-61
2023/04/29 07:40:41;;;;;;;10.20;8.20;;;;;;;12.18;77.19;100112.16;105181;1257;69221;-61
2023/04/29 07:43:10;;;;;;;15.50;9.20;;;;;;;12.18;77.34;100118.30;105181;1257;73902;-62
2023/04/29 07:45:39;;;;;;;12.60;9.30;;;;;;;12.13;77.18;100119.23;105255;1256;83550;-61
2023/04/29 07:48:07;;;;;;;10.90;8.70;;;;;;;12.06;77.34;100125.70;105052;1262;73880;-61
2023/04/29 07:50:36;;;;;;;12.70;9.40;;;;;;;12.02;77.64;100127.42;105058;1256;69254;-61
2023/04/29 07:53:04;;;;;;;11.20;8.90;;;;;;;12.01;78.02;100125.95;105200;1260;69121;-61
2023/04/29 07:55:33;;;;;;;11.30;9.00;;;;;;;12.02;78.29;100124.33;105312;1260;75270;-60
2023/04/29 07:58:01;;;;;;;14.80;11.40;;;;;;;12.03;78.54;100125.50;105267;1260;83118;-60
2023/04/29 08:00:30;;;;;;;15.50;11.50;;;;;;;12.02;78.65;100129.71;105161;1260;72769;-60
2023/04/29 08:02:58;;;;;;;13.90;10.00;;;;;;;12.03;78.66;100130.73;105106;1262;69202;-59
2023/04/29 08:05:29;;;;;;;19.90;14.60;;;;;;;12.02;79.12;100131.98;105256;1256;69101;-59
2023/04/29 08:07:58;;;;;;;34.70;24.70;;;;;;;12.03;79.18;100134.21;105219;1260;75220;-59
2023/04/29 08:10:26;;;;;;;15.90;11.70;;;;;;;12.08;79.37;100135.74;105071;1261;83108;-60
2023/04/29 08:12:55;;;;;;;12.30;10.70;;;;;;;12.16;79.59;100136.09;105130;1260;73024;-60
2023/04/29 08:15:23;;;;;;;18.80;14.30;;;;;;;12.24;79.60;100138.14;105090;1262;69774;-60
2023/04/29 08:17:53;;;;;;;15.60;12.40;;;;;;;12.29;79.66;100135.64;105236;1257;69195;-59
2023/04/29 08:20:21;;;;;;;15.40;11.80;;;;;;;12.34;79.74;100139.40;105245;1256;74993;-59
2023/04/29 08:22:50;;;;;;;12.70;9.00;;;;;;;12.43;79.72;100139.84;105214;1257;82932;-59
2023/04/29 08:25:19;;;;;;;18.00;12.20;;;;;;;12.52;79.74;100136.25;105221;1260;72757;-58
2023/04/29 08:27:47;;;;;;;18.60;12.20;;;;;;;12.62;79.62;100136.29;105215;1256;69203;-59
2023/04/29 08:30:16;;;;;;;12.70;9.10;;;;;;;12.72;79.78;100139.10;105249;1260;69128;-59
2023/04/29 08:32:44;;;;;;;13.00;8.50;;;;;;;12.85;79.71;100138.09;105241;1256;73967;-59
2023/04/29 08:35:12;;;;;;;14.00;10.20;;;;;;;12.97;79.60;100137.14;105072;1257;82478;-59
2023/04/29 08:37:41;;;;;;;19.10;13.80;;;;;;;13.02;79.32;100134.96;105152;1259;73803;-59
2023/04/29 08:40:10;;;;;;;11.90;8.60;;;;;;;13.08;79.24;100136.61;105224;1260;69100;-59
2023/04/29 08:42:38;;;;;;;16.10;12.00;;;;;;;13.13;79.23;100136.34;105244;1256;69068;-60
2023/04/29 08:45:07;;;;;;;14.70;11.00;;;;;;;13.23;79.42;100135.15;105208;1256;73930;-60
2023/04/29 08:47:35;;;;;;;11.80;10.10;;;;;;;13.34;79.66;100137.02;105271;1257;82951;-60
2023/04/29 08:50:05;;;;;;;11.50;9.70;;;;;;;13.48;79.70;100133.83;105101;1262;72419;-60
2023/04/29 08:52:34;;;;;;;9.50;8.40;;;;;;;13.64;79.69;100136.98;105209;1255;69186;-60
2023/04/29 08:55:04;;;;;;;10.60;8.60;;;;;;;13.81;79.43;100137.67;105232;1256;69178;-60
2023/04/29 08:57:41;;;;;;;9.30;7.20;;;;;;;13.90;79.16;100138.58;105226;1256;74231;-60
2023/04/29 09:00:10;;;;;;;7.90;6.70;;;;;;;14.05;79.10;100133.86;105135;1261;83554;-61
2023/04/29 09:02:50;;;;;;;9.20;6.10;;;;;;;14.18;78.69;100134.73;105235;1256;73744;-61
2023/04/29 09:05:18;;;;;;;7.90;5.30;;;;;;;14.33;78.28;100133.23;105193;1256;69267;-60
2023/04/29 09:07:47;;;;;;;7.20;5.30;;;;;;;14.45;77.99;100128.99;105107;1256;69199;-58
2023/04/29 09:10:16;;;;;;;8.60;6.00;;;;;;;14.60;77.51;100133.13;105061;1262;75086;-59
2023/04/29 09:12:45;;;;;;;7.40;6.30;;;;;;;14.69;77.42;100128.14;105150;1256;82627;-59
2023/04/29 09:15:13;;;;;;;7.00;5.70;;;;;;;14.93;77.60;100127.66;105214;1256;73798;-61
2023/04/29 09:17:43;;;;;;;5.20;4.60;;;;;;;15.19;77.15;100129.26;105193;1260;69203;-60
2023/04/29 09:20:20;;;;;;;7.90;6.50;;;;;;;15.40;76.41;100138.02;105213;1256;69208;-59
2023/04/29 09:23:02;;;;;;;6.80;6.00;;;;;;;15.59;76.22;100131.58;105201;1260;74091;-59
2023/04/29 09:25:31;;;;;;;6.00;5.20;;;;;;;15.83;75.72;100134.30;105219;1257;82538;-59
2023/04/29 09:28:13;;;;;;;7.90;6.30;;;;;;;15.97;75.03;100129.02;105164;1260;73732;-59
2023/04/29 09:30:46;;;;;;;8.60;6.60;;;;;;;16.24;74.86;100131.32;105188;1257;69189;-59
2023/04/29 09:33:16;;;;;;;8.40;6.30;;;;;;;16.51;74.32;100134.34;105241;1257;69997;-47
2023/04/29 09:35:45;;;;;;;;;;;;;;;16.85;74.01;100139.32;105265;1257;75146;-47
2023/04/29 09:38:15;;;;;;;7.80;6.30;;;;;;;16.95;73.03;100140.26;105212;1257;82199;-47
2023/04/29 09:40:43;;;;;;;7.80;6.70;;;;;;;17.13;72.88;100145.41;105190;1260;73254;-48
2023/04/29 09:43:26;;;;;;;6.90;5.80;;;;;;;17.36;71.94;100141.66;105241;1256;69940;-47
2023/04/29 09:45:54;;;;;;;6.30;5.60;;;;;;;17.53;71.44;100136.75;105137;1261;69957;-47
2023/04/29 09:48:30;;;;;;;6.80;6.10;;;;;;;17.69;71.05;100142.18;105141;1260;75242;-47
2023/04/29 09:51:03;;;;;;;7.70;6.40;;;;;;;17.86;70.84;100143.52;105191;1260;83367;-47
2023/04/29 09:53:32;;;;;;;7.90;6.20;;;;;;;17.90;69.88;100145.86;105150;1258;73880;-48
2023/04/29 09:56:01;;;;;;;6.90;6.00;;;;;;;17.83;69.60;100145.98;105173;1257;70050;-47
2023/04/29 09:58:37;;;;;;;6.20;5.60;;;;;;;17.87;69.34;100146.98;105115;1256;70035;-46
2023/04/29 10:01:06;;;;;;;6.90;5.50;;;;;;;18.00;69.28;100145.98;105125;1256;74922;-48
2023/04/29 10:03:36;;;;;;;5.70;5.20;;;;;;;18.06;68.73;100149.48;105180;1257;82613;-48
2023/04/29 10:06:06;;;;;;;5.60;4.90;;;;;;;17.86;68.22;100151.60;105096;1261;72892;-47
2023/04/29 10:08:35;;;;;;;6.10;5.20;;;;;;;17.69;68.07;100145.91;105152;1256;69898;-47
2023/04/29 10:11:04;;;;;;;4.30;3.90;;;;;;;17.47;67.87;100145.67;105172;1257;69902;-47
2023/04/29 10:13:37;;;;;;;5.60;4.50;;;;;;;17.28;67.90;100145.79;105150;1260;74070;-47
2023/04/29 10:16:22;;;;;;;5.70;4.80;;;;;;;17.14;67.89;100146.17;105093;1260;82567;-47
2023/04/29 10:18:55;;;;;;;6.10;4.70;;;;;;;16.96;67.78;100146.73;105150;1261;74138;-48
2023/04/29 10:21:29;;;;;;;5.70;4.40;;;;;;;16.71;67.58;100146.45;105118;1260;69902;-47
2023/04/29 10:23:59;;;;;;;4.70;4.20;;;;;;;16.54;68.00;100147.21;105124;1257;70031;-47
2023/04/29 10:26:28;;;;;;;6.30;4.80;;;;;;;16.55;68.46;100140.42;105116;1258;74944;-47
2023/04/29 10:29:01;;;;;;;6.50;4.60;;;;;;;16.69;68.80;100136.63;105161;1261;83613;-47
2023/04/29 10:31:30;;;;;;;5.10;4.30;;;;;;;16.82;68.77;100136.18;105143;1256;71728;-47
2023/04/29 10:34:00;;;;;;;4.50;3.40;;;;;;;16.94;68.72;100135.20;105091;1258;70006;-47
2023/04/29 10:36:30;;;;;;;6.40;4.60;;;;;;;17.05;68.42;100136.03;105135;1260;69958;-47
2023/04/29 10:39:00;;;;;;;5.40;3.60;;;;;;;17.17;68.17;100131.90;105166;1257;74815;-47
2023/04/29 10:41:34;;;;;;;4.10;3.50;;;;;;;17.35;67.99;100128.84;105141;1259;83512;-46
2023/04/29 10:44:03;;;;;;;3.70;3.10;;;;;;;17.74;67.75;100129.33;105129;1260;73744;-46
2023/04/29 10:46:31;;;;;;;3.70;3.20;;;;;;;17.96;67.33;100126.17;105155;1258;70037;-47
2023/04/29 10:49:02;;;;;;;3.60;2.30;;;;;;;18.44;66.91;100120.00;105091;1260;70345;-48
2023/04/29 10:51:32;;;;;;;3.40;2.70;;;;;;;18.99;66.25;100120.67;105152;1260;72871;-47
2023/04/29 10:54:15;;;;;;;2.60;2.40;;;;;;;19.39;65.04;100118.61;105184;1257;83880;-48
2023/04/29 10:56:49;;;;;;;2.60;2.40;;;;;;;19.43;64.03;100114.38;105132;1260;74042;-48
2023/04/29 10:59:26;;;;;;;2.80;2.60;;;;;;;19.41;63.29;100114.27;105123;1261;70002;-45
2023/04/29 11:01:55;;;;;;;4.80;3.10;;;;;;;19.85;63.27;100114.48;105123;1257;69961;-45
2023/04/29 11:04:23;;;;;;;4.70;2.90;;;;;;;20.34;62.99;100110.33;105176;1260;74003;-45
2023/04/29 11:06:57;;;;;;;4.10;3.20;;;;;;;20.89;62.44;100110.40;105122;1257;83777;-47
2023/04/29 11:09:27;;;;;;;4.40;2.70;;;;;;;21.28;61.63;100108.09;105180;1257;73802;-45
2023/04/29 11:12:00;;;;;;;;;;;;;;;21.09;60.27;100110.31;105185;1257;70017;-44
2023/04/29 11:14:36;;;;;;;3.40;3.00;;;;;;;20.66;59.11;100107.49;105114;1259;70116;-45
2023/04/29 11:17:07;;;;;;;4.40;2.80;;;;;;;20.26;58.90;100109.04;105132;1257;73791;-46
2023/04/29 11:19:39;;;;;;;2.90;2.60;;;;;;;19.83;58.69;100108.58;105141;1256;83704;-46
2023/04/29 11:22:09;;;;;;;3.30;2.30;;;;;;;19.44;58.89;100108.46;105194;1257;73453;-45
2023/04/29 11:25:00;;;;;;;7.80;2.10;;;;;;;19.05;58.87;100112.07;105131;1256;70010;-44
2023/04/29 11:27:31;;;;;;;2.40;2.10;;;;;;;18.70;59.28;100115.02;105124;1260;69991;-45
2023/04/29 11:30:02;;;;;;;2.80;2.30;;;;;;;18.55;60.09;100125.58;105151;1256;74672;-45
2023/04/29 11:32:35;;;;;;;2.50;2.00;;;;;;;18.30;60.92;100134.14;105160;1260;83660;-46